PWSweather.com
Personal Weather Stations
Station Observations
IDALMACI22
Prvic LukaHR

Prvic LukaHR

Lat: 43.72542191, Lon: 15.7968483

Elevation: 20

Station Type: ws 2300

Latest ConditionsUpdated 2:20:05 PM GMT+01:01 Thursday, Nov 14, 2019
Currently Today's Max Today's Min Today's Average
Temperature 63.3°F17.4°C 63.7°F17.6°C 51.1°F10.6°C 56.3°F13.5°C
Dew Point 52.1°F11.2°C 55.2°F12.9°C 48.5°F9.2°C 51.6°F10.9°C
Winds 8.9 mph SE14.3 kmh SE 16.6 mph -26.7 kmh - - 3.0 mph 4.8 kmh
Wind Gusts 9.8 mph15.8 kmh 16.6 mph26.7 kmh - -
Humidity 67% 91% 66% 85%
Pressure 29.69 in1005.4 mb 29.70 in1005.8 mb 29.60 in1002.4 mb -
Hour Temp Dew Point Humidity Winds Wind Gusts Pressure Precip Precip Rate Daily Precip Total
02:20 PM 63.3°F17.4°C 52.1°F11.2°C 67% 8.9 mph SE14.3 kmh SE 9.8 mph15.8 kmh 29.69 in1005.4 mb 0.00 in0.0 mm 0.00 in0.0 mm 0.00 in0.0 mm
02:10 PM 63.5°F17.5°C 52.3°F11.3°C 67% 6.9 mph SE11.1 kmh SE 11.2 mph18.0 kmh 29.69 in1005.4 mb 0.00 in0.0 mm 0.00 in0.0 mm 0.00 in0.0 mm
02:00 PM 63.7°F17.6°C 52.1°F11.2°C 66% 11.2 mph SSE18.0 kmh SSE 11.2 mph18.0 kmh 29.69 in1005.4 mb 0.00 in0.0 mm 0.00 in0.0 mm 0.00 in0.0 mm
01:50 PM 63.5°F17.5°C 52.3°F11.3°C 67% 6.9 mph SE11.1 kmh SE 6.9 mph11.1 kmh 29.69 in1005.4 mb 0.00 in0.0 mm 0.00 in0.0 mm 0.00 in0.0 mm
01:40 PM 63.3°F17.4°C 53.0°F11.7°C 69% 4.9 mph SSE7.9 kmh SSE 10.1 mph16.3 kmh 29.70 in1005.8 mb 0.00 in0.0 mm 0.00 in0.0 mm 0.00 in0.0 mm
01:30 PM 63.3°F17.4°C 53.0°F11.7°C 69% 4.9 mph SE7.9 kmh SE 10.3 mph16.6 kmh 29.69 in1005.4 mb 0.00 in0.0 mm 0.00 in0.0 mm 0.00 in0.0 mm
01:20 PM 63.3°F17.4°C 53.4°F11.9°C 70% 7.4 mph SSE11.9 kmh SSE 15.7 mph25.3 kmh 29.70 in1005.8 mb 0.00 in0.0 mm 0.00 in0.0 mm 0.00 in0.0 mm
01:10 PM 63.3°F17.4°C 53.8°F12.1°C 71% 8.3 mph SE13.4 kmh SE 14.5 mph23.3 kmh 29.70 in1005.8 mb 0.00 in0.0 mm 0.00 in0.0 mm 0.00 in0.0 mm
01:00 PM 63.1°F17.3°C 54.0°F12.2°C 72% 14.5 mph SE23.3 kmh SE 14.5 mph23.3 kmh 29.70 in1005.8 mb 0.00 in0.0 mm 0.00 in0.0 mm 0.00 in0.0 mm
12:50 PM 63.0°F17.2°C 53.8°F12.1°C 72% 10.3 mph SE16.6 kmh SE 10.3 mph16.6 kmh 29.70 in1005.8 mb 0.00 in0.0 mm 0.00 in0.0 mm 0.00 in0.0 mm
12:40 PM 63.0°F17.2°C 53.8°F12.1°C 72% 7.6 mph SSE12.2 kmh SSE 12.5 mph20.1 kmh 29.70 in1005.8 mb 0.00 in0.0 mm 0.00 in0.0 mm 0.00 in0.0 mm
12:30 PM 62.8°F17.1°C 53.6°F12.0°C 72% 11.6 mph SSE18.7 kmh SSE 11.6 mph18.7 kmh 29.69 in1005.4 mb 0.00 in0.0 mm 0.00 in0.0 mm 0.00 in0.0 mm
12:20 PM 62.8°F17.1°C 54.3°F12.4°C 74% 6.5 mph SE10.5 kmh SE 8.5 mph13.7 kmh 29.68 in1005.1 mb 0.00 in0.0 mm 0.00 in0.0 mm 0.00 in0.0 mm
12:10 PM 62.4°F16.9°C 54.3°F12.4°C 75% 8.5 mph SE13.7 kmh SE 8.5 mph13.7 kmh 29.69 in1005.4 mb 0.00 in0.0 mm 0.00 in0.0 mm 0.00 in0.0 mm
12:00 PM 62.2°F16.8°C 54.9°F12.7°C 77% 6.0 mph ESE9.7 kmh ESE 16.6 mph26.7 kmh 29.69 in1005.4 mb 0.00 in0.0 mm 0.00 in0.0 mm 0.00 in0.0 mm
11:50 AM 61.5°F16.4°C 55.0°F12.8°C 79% 16.6 mph ESE26.7 kmh ESE 16.6 mph26.7 kmh 29.69 in1005.4 mb 0.00 in0.0 mm 0.00 in0.0 mm 0.00 in0.0 mm
11:40 AM 60.6°F15.9°C 54.8°F12.7°C 81% 5.1 mph SE8.2 kmh SE 6.7 mph10.8 kmh 29.68 in1005.1 mb 0.00 in0.0 mm 0.00 in0.0 mm 0.00 in0.0 mm
11:30 AM 60.6°F15.9°C 54.5°F12.5°C 80% 6.7 mph SSE10.8 kmh SSE 6.7 mph10.8 kmh 29.68 in1005.1 mb 0.00 in0.0 mm 0.00 in0.0 mm 0.00 in0.0 mm
11:20 AM 61.0°F16.1°C 54.8°F12.7°C 80% 4.0 mph SE6.4 kmh SE 5.1 mph8.2 kmh 29.69 in1005.4 mb 0.00 in0.0 mm 0.00 in0.0 mm 0.00 in0.0 mm
11:10 AM 61.0°F16.1°C 54.8°F12.7°C 80% 3.1 mph SE5.0 kmh SE 13.2 mph21.2 kmh 29.68 in1005.1 mb 0.00 in0.0 mm 0.00 in0.0 mm 0.00 in0.0 mm
11:00 AM 61.0°F16.1°C 54.5°F12.5°C 79% 13.2 mph SE21.2 kmh SE 13.2 mph21.2 kmh 29.69 in1005.4 mb 0.00 in0.0 mm 0.00 in0.0 mm 0.00 in0.0 mm
10:50 AM 61.0°F16.1°C 54.1°F12.3°C 78% 3.8 mph SE6.1 kmh SE 12.3 mph19.8 kmh 29.69 in1005.4 mb 0.00 in0.0 mm 0.00 in0.0 mm 0.00 in0.0 mm
10:40 AM 61.0°F16.1°C 54.1°F12.3°C 78% 12.3 mph SE19.8 kmh SE 12.3 mph19.8 kmh 29.69 in1005.4 mb 0.00 in0.0 mm 0.00 in0.0 mm 0.00 in0.0 mm
10:30 AM 61.0°F16.1°C 54.5°F12.5°C 79% 4.7 mph SE7.6 kmh SE 7.2 mph11.6 kmh 29.69 in1005.4 mb 0.00 in0.0 mm 0.00 in0.0 mm 0.00 in0.0 mm
10:20 AM 60.6°F15.9°C 54.1°F12.3°C 79% 5.1 mph SE8.2 kmh SE 5.6 mph9.0 kmh 29.69 in1005.4 mb 0.00 in0.0 mm 0.00 in0.0 mm 0.00 in0.0 mm
10:10 AM 60.8°F16.0°C 54.3°F12.4°C 79% 4.7 mph SE7.6 kmh SE 8.7 mph14.0 kmh 29.68 in1005.1 mb 0.00 in0.0 mm 0.00 in0.0 mm 0.00 in0.0 mm
10:00 AM 60.6°F15.9°C 54.1°F12.3°C 79% 6.3 mph SE10.1 kmh SE 7.8 mph12.6 kmh 29.68 in1005.1 mb 0.00 in0.0 mm 0.00 in0.0 mm 0.00 in0.0 mm
09:50 AM 61.0°F16.1°C 55.2°F12.9°C 81% 4.7 mph SE7.6 kmh SE 6.9 mph11.1 kmh 29.68 in1005.1 mb 0.00 in0.0 mm 0.00 in0.0 mm 0.00 in0.0 mm
09:40 AM 60.1°F15.6°C 54.6°F12.6°C 82% 3.4 mph S5.5 kmh S 3.4 mph5.5 kmh 29.68 in1005.1 mb 0.00 in0.0 mm 0.00 in0.0 mm 0.00 in0.0 mm
09:30 AM 59.5°F15.3°C 54.4°F12.4°C 83% 2.5 mph SSE4.0 kmh SSE 2.9 mph4.7 kmh 29.68 in1005.1 mb 0.00 in0.0 mm 0.00 in0.0 mm 0.00 in0.0 mm
09:20 AM 58.8°F14.9°C 54.0°F12.2°C 84% 2.2 mph SE3.5 kmh SE 2.9 mph4.7 kmh 29.68 in1005.1 mb 0.00 in0.0 mm 0.00 in0.0 mm 0.00 in0.0 mm
09:10 AM 57.9°F14.4°C 53.4°F11.9°C 85% Calm Calm 4.9 mph7.9 kmh 29.68 in1005.1 mb 0.00 in0.0 mm 0.00 in0.0 mm 0.00 in0.0 mm
09:00 AM 57.7°F14.3°C 53.6°F12.0°C 86% 1.8 mph SE2.9 kmh SE 4.7 mph7.6 kmh 29.68 in1005.1 mb 0.00 in0.0 mm 0.00 in0.0 mm 0.00 in0.0 mm
08:50 AM 57.4°F14.1°C 53.5°F11.9°C 87% 4.7 mph SE7.6 kmh SE 4.7 mph7.6 kmh 29.68 in1005.1 mb 0.00 in0.0 mm 0.00 in0.0 mm 0.00 in0.0 mm
08:40 AM 57.0°F13.9°C 53.5°F11.9°C 88% 3.8 mph SE6.1 kmh SE 3.8 mph6.1 kmh 29.68 in1005.1 mb 0.00 in0.0 mm 0.00 in0.0 mm 0.00 in0.0 mm
08:30 AM 56.7°F13.7°C 53.5°F11.9°C 89% 1.3 mph SE2.1 kmh SE 3.8 mph6.1 kmh 29.68 in1005.1 mb 0.00 in0.0 mm 0.00 in0.0 mm 0.00 in0.0 mm
08:20 AM 56.1°F13.4°C 52.9°F11.6°C 89% Calm Calm 2.0 mph3.2 kmh 29.68 in1005.1 mb 0.00 in0.0 mm 0.00 in0.0 mm 0.00 in0.0 mm
08:10 AM 55.4°F13.0°C 52.5°F11.4°C 90% Calm Calm -- 29.68 in1005.1 mb 0.00 in0.0 mm 0.00 in0.0 mm 0.00 in0.0 mm
08:00 AM 55.2°F12.9°C 52.3°F11.3°C 90% Calm Calm 1.8 mph2.9 kmh 29.67 in1004.7 mb 0.00 in0.0 mm 0.00 in0.0 mm 0.00 in0.0 mm
07:50 AM 55.2°F12.9°C 52.3°F11.3°C 90% 1.8 mph N2.9 kmh N 1.8 mph2.9 kmh 29.67 in1004.7 mb 0.00 in0.0 mm 0.00 in0.0 mm 0.00 in0.0 mm
07:40 AM 55.0°F12.8°C 52.2°F11.2°C 90% Calm Calm 3.4 mph5.5 kmh 29.66 in1004.4 mb 0.00 in0.0 mm 0.00 in0.0 mm 0.00 in0.0 mm
07:30 AM 54.7°F12.6°C 51.8°F11.0°C 90% Calm Calm 2.0 mph3.2 kmh 29.66 in1004.4 mb 0.00 in0.0 mm 0.00 in0.0 mm 0.00 in0.0 mm
07:20 AM 54.5°F12.5°C 51.6°F10.9°C 90% Calm Calm 2.5 mph4.0 kmh 29.65 in1004.1 mb 0.00 in0.0 mm 0.00 in0.0 mm 0.00 in0.0 mm
07:10 AM 54.3°F12.4°C 51.4°F10.8°C 90% Calm Calm 1.3 mph2.1 kmh 29.65 in1004.1 mb 0.00 in0.0 mm 0.00 in0.0 mm 0.00 in0.0 mm
07:00 AM 54.1°F12.3°C 51.3°F10.7°C 90% 1.3 mph NE2.1 kmh NE 1.6 mph2.6 kmh 29.65 in1004.1 mb 0.00 in0.0 mm 0.00 in0.0 mm 0.00 in0.0 mm
06:50 AM 54.1°F12.3°C 51.3°F10.7°C 90% Calm Calm -- 29.65 in1004.1 mb 0.00 in0.0 mm 0.00 in0.0 mm 0.00 in0.0 mm
06:40 AM 53.4°F11.9°C 50.5°F10.3°C 90% Calm Calm -- 29.65 in1004.1 mb 0.00 in0.0 mm 0.00 in0.0 mm 0.00 in0.0 mm
06:30 AM 53.4°F11.9°C 50.5°F10.3°C 90% Calm Calm 2.7 mph4.3 kmh 29.65 in1004.1 mb 0.00 in0.0 mm 0.00 in0.0 mm 0.00 in0.0 mm
06:20 AM 53.2°F11.8°C 50.4°F10.2°C 90% Calm Calm 2.9 mph4.7 kmh 29.64 in1003.7 mb 0.00 in0.0 mm 0.00 in0.0 mm 0.00 in0.0 mm
06:10 AM 52.5°F11.4°C 49.6°F9.8°C 90% Calm Calm 6.5 mph10.5 kmh 29.64 in1003.7 mb 0.00 in0.0 mm 0.00 in0.0 mm 0.00 in0.0 mm
06:00 AM 52.3°F11.3°C 49.5°F9.7°C 90% 2.0 mph N3.2 kmh N 2.9 mph4.7 kmh 29.64 in1003.7 mb 0.00 in0.0 mm 0.00 in0.0 mm 0.00 in0.0 mm
05:50 AM 52.0°F11.1°C 49.1°F9.5°C 90% Calm Calm -- 29.64 in1003.7 mb 0.00 in0.0 mm 0.00 in0.0 mm 0.00 in0.0 mm
05:40 AM 51.8°F11.0°C 48.9°F9.4°C 90% Calm Calm -- 29.64 in1003.7 mb 0.00 in0.0 mm 0.00 in0.0 mm 0.00 in0.0 mm
05:30 AM 51.6°F10.9°C 48.7°F9.3°C 90% Calm Calm 1.8 mph2.9 kmh 29.64 in1003.7 mb 0.00 in0.0 mm 0.00 in0.0 mm 0.00 in0.0 mm
05:20 AM 51.6°F10.9°C 48.7°F9.3°C 90% 1.3 mph NNE2.1 kmh NNE 1.6 mph2.6 kmh 29.64 in1003.7 mb 0.00 in0.0 mm 0.00 in0.0 mm 0.00 in0.0 mm
05:10 AM 51.6°F10.9°C 48.7°F9.3°C 90% 1.6 mph NNE2.6 kmh NNE 1.6 mph2.6 kmh 29.64 in1003.7 mb 0.00 in0.0 mm 0.00 in0.0 mm 0.00 in0.0 mm
05:00 AM 51.4°F10.8°C 48.6°F9.2°C 90% Calm Calm 0.7 mph1.1 kmh 29.63 in1003.4 mb 0.00 in0.0 mm 0.00 in0.0 mm 0.00 in0.0 mm
04:50 AM 51.4°F10.8°C 48.6°F9.2°C 90% Calm Calm -- 29.64 in1003.7 mb 0.00 in0.0 mm 0.00 in0.0 mm 0.00 in0.0 mm
04:40 AM 51.4°F10.8°C 48.6°F9.2°C 90% Calm Calm -- 29.64 in1003.7 mb 0.00 in0.0 mm 0.00 in0.0 mm 0.00 in0.0 mm
04:30 AM 51.4°F10.8°C 48.6°F9.2°C 90% Calm Calm -- 29.64 in1003.7 mb 0.00 in0.0 mm 0.00 in0.0 mm 0.00 in0.0 mm
04:20 AM 51.4°F10.8°C 48.6°F9.2°C 90% Calm Calm 1.3 mph2.1 kmh 29.64 in1003.7 mb 0.00 in0.0 mm 0.00 in0.0 mm 0.00 in0.0 mm
04:10 AM 51.4°F10.8°C 48.6°F9.2°C 90% Calm Calm 2.0 mph3.2 kmh 29.64 in1003.7 mb 0.00 in0.0 mm 0.00 in0.0 mm 0.00 in0.0 mm
04:00 AM 51.4°F10.8°C 48.6°F9.2°C 90% 2.0 mph N3.2 kmh N 2.5 mph4.0 kmh 29.63 in1003.4 mb 0.00 in0.0 mm 0.00 in0.0 mm 0.00 in0.0 mm
03:50 AM 51.6°F10.9°C 48.7°F9.3°C 90% 1.3 mph NNE2.1 kmh NNE 2.5 mph4.0 kmh 29.63 in1003.4 mb 0.00 in0.0 mm 0.00 in0.0 mm 0.00 in0.0 mm
03:40 AM 52.0°F11.1°C 49.1°F9.5°C 90% 2.5 mph N4.0 kmh N 2.5 mph4.0 kmh 29.63 in1003.4 mb 0.00 in0.0 mm 0.00 in0.0 mm 0.00 in0.0 mm
03:30 AM 52.0°F11.1°C 49.1°F9.5°C 90% 2.5 mph N4.0 kmh N 2.9 mph4.7 kmh 29.63 in1003.4 mb 0.00 in0.0 mm 0.00 in0.0 mm 0.00 in0.0 mm
03:20 AM 52.0°F11.1°C 49.1°F9.5°C 90% 2.0 mph N3.2 kmh N 2.7 mph4.3 kmh 29.63 in1003.4 mb 0.00 in0.0 mm 0.00 in0.0 mm 0.00 in0.0 mm
03:10 AM 52.2°F11.2°C 49.3°F9.6°C 90% Calm Calm -- 29.63 in1003.4 mb 0.00 in0.0 mm 0.00 in0.0 mm 0.00 in0.0 mm
03:00 AM 52.2°F11.2°C 49.3°F9.6°C 90% Calm Calm 0.7 mph1.1 kmh 29.63 in1003.4 mb 0.00 in0.0 mm 0.00 in0.0 mm 0.00 in0.0 mm
02:50 AM 52.0°F11.1°C 49.4°F9.7°C 91% Calm Calm -- 29.63 in1003.4 mb 0.00 in0.0 mm 0.00 in0.0 mm 0.00 in0.0 mm
02:40 AM 51.3°F10.7°C 48.7°F9.3°C 91% Calm Calm 2.5 mph4.0 kmh 29.63 in1003.4 mb 0.00 in0.0 mm 0.00 in0.0 mm 0.00 in0.0 mm
02:30 AM 51.1°F10.6°C 48.5°F9.2°C 91% Calm Calm 0.9 mph1.4 kmh 29.62 in1003.0 mb 0.00 in0.0 mm 0.00 in0.0 mm 0.00 in0.0 mm
02:20 AM 51.4°F10.8°C 48.8°F9.3°C 91% Calm Calm -- 29.63 in1003.4 mb 0.00 in0.0 mm 0.00 in0.0 mm 0.00 in0.0 mm
02:10 AM 51.6°F10.9°C 49.0°F9.4°C 91% Calm Calm -- 29.62 in1003.0 mb 0.00 in0.0 mm 0.00 in0.0 mm 0.00 in0.0 mm
02:00 AM 52.0°F11.1°C 49.1°F9.5°C 90% Calm Calm 1.3 mph2.1 kmh 29.62 in1003.0 mb 0.00 in0.0 mm 0.00 in0.0 mm 0.00 in0.0 mm
01:50 AM 52.2°F11.2°C 49.3°F9.6°C 90% 0.9 mph N1.4 kmh N 0.9 mph1.4 kmh 29.62 in1003.0 mb 0.00 in0.0 mm 0.00 in0.0 mm 0.00 in0.0 mm
01:40 AM 52.5°F11.4°C 49.6°F9.8°C 90% Calm Calm -- 29.62 in1003.0 mb 0.00 in0.0 mm 0.00 in0.0 mm 0.00 in0.0 mm
01:30 AM 53.1°F11.7°C 50.2°F10.1°C 90% Calm Calm 1.1 mph1.8 kmh 29.61 in1002.7 mb 0.00 in0.0 mm 0.00 in0.0 mm 0.00 in0.0 mm
01:20 AM 53.2°F11.8°C 50.4°F10.2°C 90% Calm Calm -- 29.60 in1002.4 mb 0.00 in0.0 mm 0.00 in0.0 mm 0.00 in0.0 mm
01:10 AM 53.2°F11.8°C 50.6°F10.3°C 91% Calm Calm -- 29.61 in1002.7 mb 0.00 in0.0 mm 0.00 in0.0 mm 0.00 in0.0 mm
01:00 AM 53.4°F11.9°C 50.8°F10.4°C 91% Calm Calm 1.3 mph2.1 kmh 29.62 in1003.0 mb 0.00 in0.0 mm 0.00 in0.0 mm 0.00 in0.0 mm
12:50 AM 53.4°F11.9°C 50.5°F10.3°C 90% 1.3 mph NNE2.1 kmh NNE 1.3 mph2.1 kmh 29.63 in1003.4 mb 0.00 in0.0 mm 0.00 in0.0 mm 0.00 in0.0 mm
12:40 AM 53.6°F12.0°C 50.7°F10.4°C 90% Calm Calm 1.8 mph2.9 kmh 29.64 in1003.7 mb 0.00 in0.0 mm 0.00 in0.0 mm 0.00 in0.0 mm
12:30 AM 53.4°F11.9°C 50.5°F10.3°C 90% 1.8 mph ESE2.9 kmh ESE 1.8 mph2.9 kmh 29.64 in1003.7 mb 0.00 in0.0 mm 0.00 in0.0 mm 0.00 in0.0 mm
12:20 AM 53.8°F12.1°C 50.9°F10.5°C 90% Calm Calm -- 29.63 in1003.4 mb 0.00 in0.0 mm 0.00 in0.0 mm 0.00 in0.0 mm
12:10 AM 53.8°F12.1°C 50.9°F10.5°C 90% Calm Calm 1.6 mph2.6 kmh 29.63 in1003.4 mb 0.00 in0.0 mm 0.00 in0.0 mm 0.00 in0.0 mm
12:00 AM 53.6°F12.0°C 51.0°F10.6°C 91% 1.6 mph N2.6 kmh N 1.8 mph2.9 kmh 29.63 in1003.4 mb 0.00 in0.0 mm 0.00 in0.0 mm 0.00 in0.0 mm